Terminal Aerodrome Forecast
Issued by NWS

Home | Current Version | Previous Version | Text Only | Print | Product List | Glossary On
Versions: 1 2 3 4 5 6 7 8 9 10 11 12 13 14 15 16 17 18 19 20 21 22 23 24 25 26 27
000
FTUS45 KBOU 280553
TAFAPA
TAF
KAPA 280553Z 2806/2906 13009KT P6SM FEW100 BKN200
     FM281200 17005KT P6SM FEW015 SCT140
     FM281500 35005KT P6SM FEW140
     FM281900 03012KT P6SM FEW080 SCT140
     FM282200 06014G22KT P6SM SCT080 BKN120 PROB30 2900/2903
      VRB20G35KT -TSRA BKN070CB
     FM290300 13012G20KT P6SM VCTS SCT070CB BKN120=

USA.gov is the U.S. government's official web portal to all federal, state and local government web resources and services.